sensor_id;sensor_type;location;lat;lon;timestamp;P1;durP1;ratioP1;P2;durP2;ratioP2
72601;SDS011;60644;55.858;37.390;2022-09-29T00:00:11;6.35;;;2.25;;
72601;SDS011;60644;55.858;37.390;2022-09-29T00:02:38;5.90;;;2.30;;
72601;SDS011;60644;55.858;37.390;2022-09-29T00:05:04;7.88;;;2.80;;
72601;SDS011;60644;55.858;37.390;2022-09-29T00:07:31;8.05;;;3.05;;
72601;SDS011;60644;55.858;37.390;2022-09-29T00:09:57;9.52;;;3.05;;
72601;SDS011;60644;55.858;37.390;2022-09-29T00:12:23;7.00;;;2.57;;
72601;SDS011;60644;55.858;37.390;2022-09-29T00:14:49;5.90;;;2.20;;
72601;SDS011;60644;55.858;37.390;2022-09-29T00:17:15;6.68;;;2.97;;
72601;SDS011;60644;55.858;37.390;2022-09-29T00:19:41;8.15;;;3.20;;
72601;SDS011;60644;55.858;37.390;2022-09-29T00:22:07;7.47;;;2.83;;
72601;SDS011;60644;55.858;37.390;2022-09-29T00:24:33;7.25;;;2.72;;
72601;SDS011;60644;55.858;37.390;2022-09-29T00:26:59;7.57;;;3.10;;
72601;SDS011;60644;55.858;37.390;2022-09-29T00:29:26;7.68;;;3.15;;
72601;SDS011;60644;55.858;37.390;2022-09-29T00:31:52;8.10;;;3.00;;
72601;SDS011;60644;55.858;37.390;2022-09-29T00:34:18;7.72;;;2.90;;
72601;SDS011;60644;55.858;37.390;2022-09-29T00:36:44;7.45;;;3.10;;
72601;SDS011;60644;55.858;37.390;2022-09-29T00:39:10;7.03;;;2.80;;
72601;SDS011;60644;55.858;37.390;2022-09-29T00:41:38;7.22;;;3.13;;
72601;SDS011;60644;55.858;37.390;2022-09-29T00:46:43;8.48;;;3.25;;
72601;SDS011;60644;55.858;37.390;2022-09-29T00:51:55;8.40;;;3.20;;
72601;SDS011;60644;55.858;37.390;2022-09-29T00:54:23;7.45;;;3.10;;
72601;SDS011;60644;55.858;37.390;2022-09-29T00:56:53;9.57;;;3.65;;
72601;SDS011;60644;55.858;37.390;2022-09-29T00:59:26;7.70;;;3.13;;
72601;SDS011;60644;55.858;37.390;2022-09-29T01:02:16;7.97;;;3.40;;
72601;SDS011;60644;55.858;37.390;2022-09-29T01:04:45;9.77;;;3.80;;
72601;SDS011;60644;55.858;37.390;2022-09-29T01:07:12;11.52;;;3.80;;
72601;SDS011;60644;55.858;37.390;2022-09-29T01:09:39;9.38;;;3.92;;
72601;SDS011;60644;55.858;37.390;2022-09-29T01:12:07;8.98;;;3.80;;
72601;SDS011;60644;55.858;37.390;2022-09-29T01:14:34;8.77;;;4.43;;
72601;SDS011;60644;55.858;37.390;2022-09-29T01:17:02;9.57;;;4.38;;
72601;SDS011;60644;55.858;37.390;2022-09-29T01:25:08;8.63;;;4.07;;
72601;SDS011;60644;55.858;37.390;2022-09-29T01:30:40;8.27;;;3.85;;
72601;SDS011;60644;55.858;37.390;2022-09-29T01:33:31;8.38;;;3.22;;
72601;SDS011;60644;55.858;37.390;2022-09-29T01:38:52;10.00;;;3.90;;
72601;SDS011;60644;55.858;37.390;2022-09-29T01:41:40;10.57;;;4.65;;
72601;SDS011;60644;55.858;37.390;2022-09-29T01:46:47;12.07;;;4.72;;
72601;SDS011;60644;55.858;37.390;2022-09-29T01:49:18;9.27;;;4.10;;
72601;SDS011;60644;55.858;37.390;2022-09-29T01:51:59;8.98;;;4.05;;
72601;SDS011;60644;55.858;37.390;2022-09-29T02:00:08;11.57;;;4.63;;
72601;SDS011;60644;55.858;37.390;2022-09-29T02:02:42;12.80;;;4.82;;
72601;SDS011;60644;55.858;37.390;2022-09-29T02:05:31;9.65;;;4.70;;
72601;SDS011;60644;55.858;37.390;2022-09-29T02:08:13;8.35;;;3.53;;
72601;SDS011;60644;55.858;37.390;2022-09-29T02:11:07;10.02;;;4.30;;
72601;SDS011;60644;55.858;37.390;2022-09-29T02:13:40;8.93;;;4.85;;
72601;SDS011;60644;55.858;37.390;2022-09-29T02:16:11;11.35;;;4.85;;
72601;SDS011;60644;55.858;37.390;2022-09-29T02:19:02;10.48;;;4.38;;
72601;SDS011;60644;55.858;37.390;2022-09-29T02:21:32;10.23;;;4.70;;
72601;SDS011;60644;55.858;37.390;2022-09-29T02:23:58;10.38;;;4.85;;
72601;SDS011;60644;55.858;37.390;2022-09-29T02:26:27;10.13;;;5.32;;
72601;SDS011;60644;55.858;37.390;2022-09-29T02:28:59;9.35;;;4.38;;
72601;SDS011;60644;55.858;37.390;2022-09-29T02:31:27;9.35;;;4.32;;
72601;SDS011;60644;55.858;37.390;2022-09-29T02:33:54;9.23;;;4.53;;
72601;SDS011;60644;55.858;37.390;2022-09-29T02:39:14;10.55;;;4.53;;
72601;SDS011;60644;55.858;37.390;2022-09-29T02:58:02;9.10;;;4.20;;
72601;SDS011;60644;55.858;37.390;2022-09-29T03:00:37;10.00;;;4.30;;
72601;SDS011;60644;55.858;37.390;2022-09-29T03:03:04;9.02;;;3.47;;
72601;SDS011;60644;55.858;37.390;2022-09-29T03:05:30;9.52;;;4.10;;
72601;SDS011;60644;55.858;37.390;2022-09-29T03:07:56;10.13;;;3.80;;
72601;SDS011;60644;55.858;37.390;2022-09-29T03:10:21;9.57;;;4.15;;
72601;SDS011;60644;55.858;37.390;2022-09-29T03:12:47;10.07;;;4.07;;
72601;SDS011;60644;55.858;37.390;2022-09-29T03:15:13;8.87;;;4.03;;
72601;SDS011;60644;55.858;37.390;2022-09-29T03:17:39;9.27;;;4.18;;
72601;SDS011;60644;55.858;37.390;2022-09-29T03:20:06;9.55;;;4.15;;
72601;SDS011;60644;55.858;37.390;2022-09-29T03:22:33;9.00;;;4.38;;
72601;SDS011;60644;55.858;37.390;2022-09-29T03:24:59;13.27;;;4.50;;
72601;SDS011;60644;55.858;37.390;2022-09-29T03:27:25;10.43;;;5.13;;
72601;SDS011;60644;55.858;37.390;2022-09-29T03:29:51;12.50;;;4.93;;
72601;SDS011;60644;55.858;37.390;2022-09-29T03:32:17;9.55;;;4.20;;
72601;SDS011;60644;55.858;37.390;2022-09-29T03:34:44;9.52;;;4.20;;
72601;SDS011;60644;55.858;37.390;2022-09-29T03:37:10;9.73;;;4.13;;
72601;SDS011;60644;55.858;37.390;2022-09-29T03:39:36;11.40;;;3.83;;
72601;SDS011;60644;55.858;37.390;2022-09-29T03:42:03;8.18;;;3.65;;
72601;SDS011;60644;55.858;37.390;2022-09-29T03:44:29;8.05;;;3.45;;
72601;SDS011;60644;55.858;37.390;2022-09-29T03:47:05;10.30;;;3.90;;
72601;SDS011;60644;55.858;37.390;2022-09-29T03:49:31;10.17;;;3.93;;
72601;SDS011;60644;55.858;37.390;2022-09-29T03:51:58;8.60;;;3.90;;
72601;SDS011;60644;55.858;37.390;2022-09-29T03:54:24;10.35;;;4.20;;
72601;SDS011;60644;55.858;37.390;2022-09-29T03:56:51;9.98;;;4.20;;
72601;SDS011;60644;55.858;37.390;2022-09-29T03:59:17;10.13;;;4.43;;
72601;SDS011;60644;55.858;37.390;2022-09-29T04:01:43;8.15;;;3.70;;
72601;SDS011;60644;55.858;37.390;2022-09-29T04:04:09;9.00;;;4.05;;
72601;SDS011;60644;55.858;37.390;2022-09-29T04:06:40;10.18;;;4.30;;
72601;SDS011;60644;55.858;37.390;2022-09-29T04:09:06;8.33;;;3.70;;
72601;SDS011;60644;55.858;37.390;2022-09-29T04:11:32;8.25;;;3.33;;
72601;SDS011;60644;55.858;37.390;2022-09-29T04:13:57;9.40;;;3.50;;
72601;SDS011;60644;55.858;37.390;2022-09-29T04:16:23;7.53;;;3.88;;
72601;SDS011;60644;55.858;37.390;2022-09-29T04:18:49;9.47;;;3.27;;
72601;SDS011;60644;55.858;37.390;2022-09-29T04:21:15;8.45;;;2.70;;
72601;SDS011;60644;55.858;37.390;2022-09-29T04:23:41;7.50;;;3.20;;
72601;SDS011;60644;55.858;37.390;2022-09-29T04:26:07;6.97;;;2.63;;
72601;SDS011;60644;55.858;37.390;2022-09-29T04:28:34;7.38;;;2.90;;
72601;SDS011;60644;55.858;37.390;2022-09-29T04:31:01;8.68;;;3.15;;
72601;SDS011;60644;55.858;37.390;2022-09-29T04:33:27;10.50;;;2.88;;
72601;SDS011;60644;55.858;37.390;2022-09-29T04:35:57;7.00;;;2.80;;
72601;SDS011;60644;55.858;37.390;2022-09-29T04:38:23;6.15;;;2.63;;
72601;SDS011;60644;55.858;37.390;2022-09-29T04:40:49;7.78;;;2.78;;
72601;SDS011;60644;55.858;37.390;2022-09-29T04:43:18;8.35;;;2.70;;
72601;SDS011;60644;55.858;37.390;2022-09-29T04:45:44;10.43;;;2.97;;
72601;SDS011;60644;55.858;37.390;2022-09-29T04:48:09;6.50;;;2.90;;
72601;SDS011;60644;55.858;37.390;2022-09-29T04:50:38;10.23;;;3.30;;
72601;SDS011;60644;55.858;37.390;2022-09-29T04:53:05;9.05;;;3.25;;
72601;SDS011;60644;55.858;37.390;2022-09-29T04:55:32;7.60;;;3.20;;
72601;SDS011;60644;55.858;37.390;2022-09-29T04:57:58;7.28;;;2.90;;
72601;SDS011;60644;55.858;37.390;2022-09-29T05:00:24;6.70;;;2.78;;
72601;SDS011;60644;55.858;37.390;2022-09-29T05:02:49;7.87;;;3.00;;
72601;SDS011;60644;55.858;37.390;2022-09-29T05:05:15;7.00;;;3.28;;
72601;SDS011;60644;55.858;37.390;2022-09-29T05:07:42;9.63;;;3.20;;
72601;SDS011;60644;55.858;37.390;2022-09-29T05:10:09;6.55;;;2.60;;
72601;SDS011;60644;55.858;37.390;2022-09-29T05:12:36;7.38;;;3.38;;
72601;SDS011;60644;55.858;37.390;2022-09-29T05:15:04;8.05;;;3.17;;
72601;SDS011;60644;55.858;37.390;2022-09-29T05:17:31;7.85;;;3.15;;
72601;SDS011;60644;55.858;37.390;2022-09-29T05:20:00;10.00;;;3.20;;
72601;SDS011;60644;55.858;37.390;2022-09-29T05:22:28;8.45;;;3.45;;
72601;SDS011;60644;55.858;37.390;2022-09-29T05:24:54;7.90;;;3.00;;
72601;SDS011;60644;55.858;37.390;2022-09-29T05:27:23;11.55;;;5.03;;
72601;SDS011;60644;55.858;37.390;2022-09-29T05:29:50;11.50;;;4.65;;
72601;SDS011;60644;55.858;37.390;2022-09-29T05:32:19;9.45;;;4.20;;
72601;SDS011;60644;55.858;37.390;2022-09-29T05:34:47;12.77;;;5.53;;
72601;SDS011;60644;55.858;37.390;2022-09-29T05:37:15;8.23;;;3.80;;
72601;SDS011;60644;55.858;37.390;2022-09-29T05:39:43;7.85;;;3.40;;
72601;SDS011;60644;55.858;37.390;2022-09-29T05:42:10;7.97;;;3.25;;
72601;SDS011;60644;55.858;37.390;2022-09-29T05:44:36;8.70;;;3.78;;
72601;SDS011;60644;55.858;37.390;2022-09-29T05:47:02;10.17;;;3.67;;
72601;SDS011;60644;55.858;37.390;2022-09-29T05:49:28;6.88;;;3.15;;
72601;SDS011;60644;55.858;37.390;2022-09-29T05:51:56;7.93;;;3.10;;
72601;SDS011;60644;55.858;37.390;2022-09-29T05:54:22;7.72;;;3.17;;
72601;SDS011;60644;55.858;37.390;2022-09-29T05:56:48;13.27;;;3.83;;
72601;SDS011;60644;55.858;37.390;2022-09-29T05:59:14;8.18;;;3.50;;
72601;SDS011;60644;55.858;37.390;2022-09-29T06:01:40;9.18;;;3.65;;
72601;SDS011;60644;55.858;37.390;2022-09-29T06:04:07;6.80;;;2.80;;
72601;SDS011;60644;55.858;37.390;2022-09-29T06:06:33;7.45;;;3.28;;
72601;SDS011;60644;55.858;37.390;2022-09-29T06:09:01;7.55;;;3.83;;
72601;SDS011;60644;55.858;37.390;2022-09-29T06:11:28;9.45;;;4.22;;
72601;SDS011;60644;55.858;37.390;2022-09-29T06:13:58;9.07;;;4.18;;
72601;SDS011;60644;55.858;37.390;2022-09-29T06:16:26;9.13;;;4.13;;
72601;SDS011;60644;55.858;37.390;2022-09-29T06:18:53;9.43;;;4.13;;
72601;SDS011;60644;55.858;37.390;2022-09-29T06:21:20;9.02;;;4.00;;
72601;SDS011;60644;55.858;37.390;2022-09-29T06:23:49;11.38;;;5.20;;
72601;SDS011;60644;55.858;37.390;2022-09-29T06:26:16;10.75;;;4.85;;
72601;SDS011;60644;55.858;37.390;2022-09-29T06:28:43;12.52;;;5.13;;
72601;SDS011;60644;55.858;37.390;2022-09-29T06:31:12;8.93;;;4.30;;
72601;SDS011;60644;55.858;37.390;2022-09-29T06:33:40;11.23;;;5.00;;
72601;SDS011;60644;55.858;37.390;2022-09-29T06:36:09;11.55;;;5.22;;
72601;SDS011;60644;55.858;37.390;2022-09-29T06:39:10;9.65;;;4.20;;
72601;SDS011;60644;55.858;37.390;2022-09-29T06:41:37;10.88;;;4.60;;
72601;SDS011;60644;55.858;37.390;2022-09-29T06:44:06;10.13;;;4.65;;
72601;SDS011;60644;55.858;37.390;2022-09-29T06:46:32;11.23;;;5.63;;
72601;SDS011;60644;55.858;37.390;2022-09-29T06:49:01;12.88;;;5.45;;
72601;SDS011;60644;55.858;37.390;2022-09-29T06:51:27;12.68;;;5.72;;
72601;SDS011;60644;55.858;37.390;2022-09-29T06:53:52;12.88;;;5.55;;
72601;SDS011;60644;55.858;37.390;2022-09-29T06:56:18;15.20;;;5.37;;
72601;SDS011;60644;55.858;37.390;2022-09-29T06:58:44;14.88;;;6.43;;
72601;SDS011;60644;55.858;37.390;2022-09-29T07:01:11;13.40;;;5.90;;
72601;SDS011;60644;55.858;37.390;2022-09-29T07:03:37;13.73;;;6.35;;
72601;SDS011;60644;55.858;37.390;2022-09-29T07:06:04;13.13;;;5.60;;
72601;SDS011;60644;55.858;37.390;2022-09-29T07:08:32;12.95;;;6.20;;
72601;SDS011;60644;55.858;37.390;2022-09-29T07:11:01;13.98;;;5.85;;
72601;SDS011;60644;55.858;37.390;2022-09-29T07:13:27;14.18;;;6.15;;
72601;SDS011;60644;55.858;37.390;2022-09-29T07:15:54;12.15;;;5.45;;
72601;SDS011;60644;55.858;37.390;2022-09-29T07:18:21;12.27;;;6.07;;
72601;SDS011;60644;55.858;37.390;2022-09-29T07:20:47;16.05;;;6.28;;
72601;SDS011;60644;55.858;37.390;2022-09-29T07:23:13;13.70;;;6.18;;
72601;SDS011;60644;55.858;37.390;2022-09-29T07:25:39;13.30;;;6.30;;
72601;SDS011;60644;55.858;37.390;2022-09-29T07:28:05;15.13;;;6.30;;
72601;SDS011;60644;55.858;37.390;2022-09-29T07:30:30;16.45;;;6.78;;
72601;SDS011;60644;55.858;37.390;2022-09-29T07:32:56;16.00;;;7.20;;
72601;SDS011;60644;55.858;37.390;2022-09-29T07:35:22;18.58;;;6.53;;
72601;SDS011;60644;55.858;37.390;2022-09-29T07:37:52;14.95;;;6.10;;
72601;SDS011;60644;55.858;37.390;2022-09-29T07:40:19;17.88;;;6.57;;
72601;SDS011;60644;55.858;37.390;2022-09-29T07:42:46;17.02;;;6.72;;
72601;SDS011;60644;55.858;37.390;2022-09-29T07:45:13;15.77;;;6.47;;
72601;SDS011;60644;55.858;37.390;2022-09-29T07:47:40;18.48;;;6.78;;
72601;SDS011;60644;55.858;37.390;2022-09-29T07:50:06;15.45;;;7.00;;
72601;SDS011;60644;55.858;37.390;2022-09-29T07:52:32;17.38;;;7.75;;
72601;SDS011;60644;55.858;37.390;2022-09-29T07:54:58;14.53;;;6.83;;
72601;SDS011;60644;55.858;37.390;2022-09-29T07:57:24;16.73;;;6.93;;
72601;SDS011;60644;55.858;37.390;2022-09-29T07:59:49;16.10;;;7.18;;
72601;SDS011;60644;55.858;37.390;2022-09-29T08:02:19;15.80;;;7.70;;
72601;SDS011;60644;55.858;37.390;2022-09-29T08:04:45;14.48;;;7.00;;
72601;SDS011;60644;55.858;37.390;2022-09-29T08:07:12;16.52;;;7.32;;
72601;SDS011;60644;55.858;37.390;2022-09-29T08:09:41;14.95;;;7.20;;
72601;SDS011;60644;55.858;37.390;2022-09-29T08:12:07;21.48;;;7.82;;
72601;SDS011;60644;55.858;37.390;2022-09-29T08:14:33;17.70;;;7.47;;
72601;SDS011;60644;55.858;37.390;2022-09-29T08:16:59;18.00;;;8.40;;
72601;SDS011;60644;55.858;37.390;2022-09-29T08:19:25;17.90;;;7.50;;
72601;SDS011;60644;55.858;37.390;2022-09-29T08:21:52;16.65;;;7.82;;
72601;SDS011;60644;55.858;37.390;2022-09-29T08:24:18;18.23;;;7.73;;
72601;SDS011;60644;55.858;37.390;2022-09-29T08:26:44;19.23;;;8.32;;
72601;SDS011;60644;55.858;37.390;2022-09-29T08:29:12;17.83;;;7.25;;
72601;SDS011;60644;55.858;37.390;2022-09-29T08:31:38;14.35;;;7.53;;
72601;SDS011;60644;55.858;37.390;2022-09-29T08:34:04;17.30;;;7.97;;
72601;SDS011;60644;55.858;37.390;2022-09-29T08:36:31;16.05;;;7.00;;
72601;SDS011;60644;55.858;37.390;2022-09-29T08:38:57;18.33;;;7.88;;
72601;SDS011;60644;55.858;37.390;2022-09-29T08:41:58;17.88;;;7.65;;
72601;SDS011;60644;55.858;37.390;2022-09-29T08:44:31;18.77;;;7.93;;
72601;SDS011;60644;55.858;37.390;2022-09-29T08:47:19;14.43;;;6.40;;
72601;SDS011;60644;55.858;37.390;2022-09-29T08:52:39;15.45;;;6.60;;
72601;SDS011;60644;55.858;37.390;2022-09-29T08:57:40;15.57;;;6.73;;
72601;SDS011;60644;55.858;37.390;2022-09-29T09:00:09;12.70;;;5.97;;
72601;SDS011;60644;55.858;37.390;2022-09-29T09:22:03;15.82;;;6.28;;
72601;SDS011;60644;55.858;37.390;2022-09-29T09:24:35;15.30;;;6.13;;
72601;SDS011;60644;55.858;37.390;2022-09-29T09:27:11;15.75;;;6.65;;
72601;SDS011;60644;55.858;37.390;2022-09-29T09:29:42;13.88;;;6.38;;
72601;SDS011;60644;55.858;37.390;2022-09-29T09:32:30;15.40;;;5.68;;
72601;SDS011;60644;55.858;37.390;2022-09-29T09:35:03;14.88;;;6.88;;
72601;SDS011;60644;55.858;37.390;2022-09-29T09:37:43;15.10;;;6.70;;
72601;SDS011;60644;55.858;37.390;2022-09-29T09:40:12;14.77;;;5.45;;
72601;SDS011;60644;55.858;37.390;2022-09-29T09:42:57;15.80;;;5.85;;
72601;SDS011;60644;55.858;37.390;2022-09-29T09:45:30;12.75;;;5.63;;
72601;SDS011;60644;55.858;37.390;2022-09-29T09:48:23;12.18;;;5.50;;
72601;SDS011;60644;55.858;37.390;2022-09-29T09:50:55;12.57;;;5.07;;
72601;SDS011;60644;55.858;37.390;2022-09-29T09:53:33;12.32;;;5.35;;
72601;SDS011;60644;55.858;37.390;2022-09-29T09:56:06;12.18;;;4.93;;
72601;SDS011;60644;55.858;37.390;2022-09-29T10:01:30;11.23;;;5.10;;
72601;SDS011;60644;55.858;37.390;2022-09-29T10:03:56;10.67;;;4.60;;
72601;SDS011;60644;55.858;37.390;2022-09-29T10:06:24;11.00;;;4.85;;
72601;SDS011;60644;55.858;37.390;2022-09-29T10:08:50;11.40;;;4.10;;
72601;SDS011;60644;55.858;37.390;2022-09-29T10:11:24;9.77;;;4.40;;
72601;SDS011;60644;55.858;37.390;2022-09-29T10:14:43;10.80;;;4.50;;
72601;SDS011;60644;55.858;37.390;2022-09-29T10:16:58;11.75;;;4.95;;
72601;SDS011;60644;55.858;37.390;2022-09-29T10:22:26;10.80;;;4.45;;
72601;SDS011;60644;55.858;37.390;2022-09-29T10:25:03;11.32;;;5.22;;
72601;SDS011;60644;55.858;37.390;2022-09-29T10:27:59;10.17;;;4.40;;
72601;SDS011;60644;55.858;37.390;2022-09-29T10:30:32;10.68;;;3.78;;
72601;SDS011;60644;55.858;37.390;2022-09-29T10:33:00;8.50;;;3.35;;
72601;SDS011;60644;55.858;37.390;2022-09-29T10:35:31;9.45;;;3.97;;
72601;SDS011;60644;55.858;37.390;2022-09-29T10:38:01;11.82;;;4.90;;
72601;SDS011;60644;55.858;37.390;2022-09-29T10:40:32;9.10;;;3.60;;
72601;SDS011;60644;55.858;37.390;2022-09-29T10:42:59;8.48;;;3.55;;
72601;SDS011;60644;55.858;37.390;2022-09-29T10:45:48;10.68;;;4.05;;
72601;SDS011;60644;55.858;37.390;2022-09-29T10:48:14;7.07;;;3.00;;
72601;SDS011;60644;55.858;37.390;2022-09-29T10:53:39;8.70;;;3.50;;
72601;SDS011;60644;55.858;37.390;2022-09-29T10:58:54;12.40;;;4.95;;
72601;SDS011;60644;55.858;37.390;2022-09-29T11:01:23;11.90;;;4.10;;
72601;SDS011;60644;55.858;37.390;2022-09-29T11:04:02;10.43;;;3.90;;
72601;SDS011;60644;55.858;37.390;2022-09-29T11:06:34;9.67;;;3.70;;
72601;SDS011;60644;55.858;37.390;2022-09-29T11:11:38;8.98;;;4.15;;
72601;SDS011;60644;55.858;37.390;2022-09-29T11:17:27;8.77;;;4.00;;
72601;SDS011;60644;55.858;37.390;2022-09-29T11:19:51;9.57;;;3.70;;
72601;SDS011;60644;55.858;37.390;2022-09-29T11:22:24;8.98;;;4.15;;
72601;SDS011;60644;55.858;37.390;2022-09-29T11:24:57;14.70;;;4.43;;
72601;SDS011;60644;55.858;37.390;2022-09-29T11:31:21;9.10;;;3.83;;
72601;SDS011;60644;55.858;37.390;2022-09-29T11:36:53;12.45;;;4.65;;
72601;SDS011;60644;55.858;37.390;2022-09-29T11:42:17;10.02;;;4.10;;
72601;SDS011;60644;55.858;37.390;2022-09-29T11:45:01;10.05;;;4.20;;
72601;SDS011;60644;55.858;37.390;2022-09-29T11:47:37;9.73;;;3.90;;
72601;SDS011;60644;55.858;37.390;2022-09-29T11:50:24;10.50;;;5.35;;
72601;SDS011;60644;55.858;37.390;2022-09-29T12:01:24;10.10;;;4.68;;
72601;SDS011;60644;55.858;37.390;2022-09-29T12:13:09;9.50;;;4.43;;
72601;SDS011;60644;55.858;37.390;2022-09-29T12:18:16;11.77;;;4.43;;
72601;SDS011;60644;55.858;37.390;2022-09-29T12:20:51;10.07;;;4.18;;
72601;SDS011;60644;55.858;37.390;2022-09-29T12:23:19;9.97;;;3.77;;
72601;SDS011;60644;55.858;37.390;2022-09-29T12:25:56;9.18;;;3.95;;
72601;SDS011;60644;55.858;37.390;2022-09-29T12:28:31;10.23;;;4.00;;
72601;SDS011;60644;55.858;37.390;2022-09-29T12:31:15;9.18;;;3.63;;
72601;SDS011;60644;55.858;37.390;2022-09-29T12:33:50;9.40;;;3.85;;
72601;SDS011;60644;55.858;37.390;2022-09-29T12:51:41;8.03;;;3.70;;
72601;SDS011;60644;55.858;37.390;2022-09-29T12:56:31;9.07;;;3.60;;
72601;SDS011;60644;55.858;37.390;2022-09-29T12:59:10;6.95;;;2.78;;
72601;SDS011;60644;55.858;37.390;2022-09-29T13:01:53;10.90;;;3.70;;
72601;SDS011;60644;55.858;37.390;2022-09-29T13:15:12;7.72;;;3.45;;
72601;SDS011;60644;55.858;37.390;2022-09-29T13:29:02;7.70;;;3.53;;
72601;SDS011;60644;55.858;37.390;2022-09-29T13:31:36;10.32;;;3.75;;
72601;SDS011;60644;55.858;37.390;2022-09-29T13:34:04;9.93;;;3.72;;
72601;SDS011;60644;55.858;37.390;2022-09-29T13:36:31;8.30;;;3.58;;
72601;SDS011;60644;55.858;37.390;2022-09-29T13:39:24;8.10;;;3.77;;
72601;SDS011;60644;55.858;37.390;2022-09-29T13:41:52;7.75;;;3.45;;
72601;SDS011;60644;55.858;37.390;2022-09-29T13:46:50;8.60;;;3.88;;
72601;SDS011;60644;55.858;37.390;2022-09-29T13:54:40;10.23;;;4.28;;
72601;SDS011;60644;55.858;37.390;2022-09-29T14:00:00;11.13;;;4.60;;
72601;SDS011;60644;55.858;37.390;2022-09-29T14:02:39;11.50;;;4.50;;
72601;SDS011;60644;55.858;37.390;2022-09-29T14:10:57;11.65;;;5.38;;
72601;SDS011;60644;55.858;37.390;2022-09-29T14:16:33;11.25;;;6.07;;
72601;SDS011;60644;55.858;37.390;2022-09-29T14:24:54;12.48;;;5.07;;
72601;SDS011;60644;55.858;37.390;2022-09-29T14:40:56;13.13;;;5.80;;
72601;SDS011;60644;55.858;37.390;2022-09-29T14:44:12;12.13;;;6.32;;
72601;SDS011;60644;55.858;37.390;2022-09-29T14:46:30;11.03;;;5.47;;
72601;SDS011;60644;55.858;37.390;2022-09-29T14:53:01;14.63;;;5.85;;
72601;SDS011;60644;55.858;37.390;2022-09-29T15:01:32;12.77;;;5.27;;
72601;SDS011;60644;55.858;37.390;2022-09-29T15:04:20;14.48;;;6.80;;
72601;SDS011;60644;55.858;37.390;2022-09-29T15:06:50;14.20;;;6.07;;
72601;SDS011;60644;55.858;37.390;2022-09-29T15:11:43;11.77;;;5.87;;
72601;SDS011;60644;55.858;37.390;2022-09-29T15:27:31;14.45;;;6.70;;
72601;SDS011;60644;55.858;37.390;2022-09-29T15:29:58;12.82;;;6.72;;
72601;SDS011;60644;55.858;37.390;2022-09-29T15:32:28;12.68;;;6.03;;
72601;SDS011;60644;55.858;37.390;2022-09-29T15:35:03;12.38;;;6.25;;
72601;SDS011;60644;55.858;37.390;2022-09-29T15:40:16;14.52;;;6.50;;
72601;SDS011;60644;55.858;37.390;2022-09-29T15:42:45;12.95;;;6.05;;
72601;SDS011;60644;55.858;37.390;2022-09-29T15:45:21;14.55;;;6.32;;
72601;SDS011;60644;55.858;37.390;2022-09-29T15:48:04;14.90;;;6.10;;
72601;SDS011;60644;55.858;37.390;2022-09-29T15:50:33;15.30;;;6.30;;
72601;SDS011;60644;55.858;37.390;2022-09-29T15:53:07;15.48;;;6.60;;
72601;SDS011;60644;55.858;37.390;2022-09-29T15:55:35;16.23;;;7.28;;
72601;SDS011;60644;55.858;37.390;2022-09-29T15:58:02;13.40;;;6.10;;
72601;SDS011;60644;55.858;37.390;2022-09-29T16:00:57;16.83;;;7.95;;
72601;SDS011;60644;55.858;37.390;2022-09-29T16:03:28;18.43;;;7.03;;
72601;SDS011;60644;55.858;37.390;2022-09-29T16:08:48;14.25;;;6.53;;
72601;SDS011;60644;55.858;37.390;2022-09-29T16:11:30;15.98;;;6.85;;
72601;SDS011;60644;55.858;37.390;2022-09-29T16:14:09;18.52;;;8.35;;
72601;SDS011;60644;55.858;37.390;2022-09-29T16:16:42;14.80;;;7.30;;
72601;SDS011;60644;55.858;37.390;2022-09-29T16:19:15;18.20;;;6.78;;
72601;SDS011;60644;55.858;37.390;2022-09-29T16:21:51;14.57;;;6.13;;
72601;SDS011;60644;55.858;37.390;2022-09-29T16:24:20;16.55;;;7.32;;
72601;SDS011;60644;55.858;37.390;2022-09-29T16:31:43;18.80;;;7.20;;
72601;SDS011;60644;55.858;37.390;2022-09-29T16:36:47;16.13;;;6.65;;
72601;SDS011;60644;55.858;37.390;2022-09-29T16:39:17;16.02;;;6.47;;
72601;SDS011;60644;55.858;37.390;2022-09-29T16:41:47;17.42;;;7.22;;
72601;SDS011;60644;55.858;37.390;2022-09-29T16:44:15;18.25;;;7.00;;
72601;SDS011;60644;55.858;37.390;2022-09-29T16:49:23;16.30;;;7.50;;
72601;SDS011;60644;55.858;37.390;2022-09-29T16:51:52;18.15;;;7.35;;
72601;SDS011;60644;55.858;37.390;2022-09-29T16:54:32;15.55;;;6.25;;
72601;SDS011;60644;55.858;37.390;2022-09-29T16:57:14;15.57;;;6.13;;
72601;SDS011;60644;55.858;37.390;2022-09-29T16:59:44;14.40;;;6.78;;
72601;SDS011;60644;55.858;37.390;2022-09-29T17:02:10;14.07;;;6.78;;
72601;SDS011;60644;55.858;37.390;2022-09-29T17:04:37;17.02;;;6.78;;
72601;SDS011;60644;55.858;37.390;2022-09-29T17:07:03;24.07;;;7.13;;
72601;SDS011;60644;55.858;37.390;2022-09-29T17:09:29;18.25;;;7.35;;
72601;SDS011;60644;55.858;37.390;2022-09-29T17:11:55;17.95;;;6.80;;
72601;SDS011;60644;55.858;37.390;2022-09-29T17:14:24;14.63;;;6.45;;
72601;SDS011;60644;55.858;37.390;2022-09-29T17:16:50;18.10;;;7.70;;
72601;SDS011;60644;55.858;37.390;2022-09-29T17:19:17;17.35;;;7.03;;
72601;SDS011;60644;55.858;37.390;2022-09-29T17:21:43;16.58;;;6.88;;
72601;SDS011;60644;55.858;37.390;2022-09-29T17:24:09;16.35;;;7.07;;
72601;SDS011;60644;55.858;37.390;2022-09-29T17:26:36;20.90;;;7.63;;
72601;SDS011;60644;55.858;37.390;2022-09-29T17:29:23;17.58;;;7.45;;
72601;SDS011;60644;55.858;37.390;2022-09-29T17:31:49;19.77;;;7.28;;
72601;SDS011;60644;55.858;37.390;2022-09-29T17:34:15;13.98;;;6.88;;
72601;SDS011;60644;55.858;37.390;2022-09-29T17:36:42;17.40;;;8.68;;
72601;SDS011;60644;55.858;37.390;2022-09-29T17:39:08;19.20;;;7.70;;
72601;SDS011;60644;55.858;37.390;2022-09-29T17:41:34;18.08;;;7.97;;
72601;SDS011;60644;55.858;37.390;2022-09-29T17:44:00;14.90;;;7.70;;
72601;SDS011;60644;55.858;37.390;2022-09-29T17:46:30;20.60;;;8.02;;
72601;SDS011;60644;55.858;37.390;2022-09-29T17:48:56;18.63;;;7.75;;
72601;SDS011;60644;55.858;37.390;2022-09-29T17:51:22;14.67;;;7.13;;
72601;SDS011;60644;55.858;37.390;2022-09-29T17:53:48;14.68;;;7.40;;
72601;SDS011;60644;55.858;37.390;2022-09-29T17:56:21;17.17;;;7.18;;
72601;SDS011;60644;55.858;37.390;2022-09-29T17:58:50;14.50;;;7.27;;
72601;SDS011;60644;55.858;37.390;2022-09-29T18:01:18;17.50;;;8.48;;
72601;SDS011;60644;55.858;37.390;2022-09-29T18:03:48;16.02;;;7.93;;
72601;SDS011;60644;55.858;37.390;2022-09-29T18:06:17;17.15;;;7.43;;
72601;SDS011;60644;55.858;37.390;2022-09-29T18:08:50;15.35;;;7.10;;
72601;SDS011;60644;55.858;37.390;2022-09-29T18:11:18;13.70;;;6.40;;
72601;SDS011;60644;55.858;37.390;2022-09-29T18:13:45;12.77;;;6.90;;
72601;SDS011;60644;55.858;37.390;2022-09-29T18:16:12;14.32;;;7.20;;
72601;SDS011;60644;55.858;37.390;2022-09-29T18:18:39;14.07;;;7.07;;
72601;SDS011;60644;55.858;37.390;2022-09-29T18:21:05;14.13;;;6.85;;
72601;SDS011;60644;55.858;37.390;2022-09-29T18:23:32;15.53;;;6.53;;
72601;SDS011;60644;55.858;37.390;2022-09-29T18:25:59;15.35;;;7.00;;
72601;SDS011;60644;55.858;37.390;2022-09-29T18:28:25;14.73;;;6.82;;
72601;SDS011;60644;55.858;37.390;2022-09-29T18:33:52;12.53;;;5.80;;
72601;SDS011;60644;55.858;37.390;2022-09-29T18:36:19;14.93;;;6.82;;
72601;SDS011;60644;55.858;37.390;2022-09-29T18:38:45;16.52;;;7.65;;
72601;SDS011;60644;55.858;37.390;2022-09-29T18:41:12;14.15;;;6.22;;